Time;durP1;ratioP1;P1;durP2;ratioP2;P2;SDS_P1;SDS_P2;PMS_P1;PMS_P2;Temp;Humidity;BMP_temperature;BMP_pressure;BME280_temperature;BME280_humidity;BME280_pressure;Samples;Min_cycle;Max_cycle;Signal;HPM_P1;HPM_P2
2021/08/04 00:01:08;;;;;;;8.13;3.50;;;;;;;12.02;95.05;101130.56;5069726;28;20040;-69
2021/08/04 00:03:34;;;;;;;9.53;4.30;;;;;;;12.15;95.95;101135.44;5069759;28;20496;-69
2021/08/04 00:05:59;;;;;;;8.03;5.03;;;;;;;12.04;95.40;101133.91;5070042;28;20047;-69
2021/08/04 00:08:24;;;;;;;6.53;4.57;;;;;;;12.06;95.76;101141.75;5069540;28;20044;-69
2021/08/04 00:10:50;;;;;;;8.07;4.43;;;;;;;11.95;95.49;101134.88;5070382;28;20032;-69
2021/08/04 00:13:15;;;;;;;5.17;3.67;;;;;;;11.92;95.15;101140.56;5070541;28;20694;-69
2021/08/04 00:15:41;;;;;;;5.32;3.72;;;;;;;11.90;95.64;101142.56;5070091;28;20529;-69
2021/08/04 00:18:07;;;;;;;6.38;4.22;;;;;;;11.86;95.61;101146.53;5069516;28;20042;-69
2021/08/04 00:20:32;;;;;;;7.50;4.83;;;;;;;11.89;96.18;101146.22;5070061;28;20037;-69
2021/08/04 00:22:57;;;;;;;7.93;3.97;;;;;;;11.80;95.99;101143.50;5069266;28;20115;-69
2021/08/04 00:25:23;;;;;;;5.60;4.03;;;;;;;11.73;95.67;101142.47;5069907;28;20361;-69
2021/08/04 00:27:48;;;;;;;7.00;3.37;;;;;;;11.68;95.72;101139.41;5070057;28;20040;-69
2021/08/04 00:30:14;;;;;;;4.67;3.23;;;;;;;11.66;95.56;101140.56;5070155;28;20039;-69
2021/08/04 00:32:39;;;;;;;12.87;3.57;;;;;;;11.57;95.58;101137.03;5051977;28;20098;-70
2021/08/04 00:35:05;;;;;;;4.45;3.50;;;;;;;11.56;95.47;101141.53;5052585;28;20032;-69
2021/08/04 00:37:31;;;;;;;;;;;;;;;11.57;95.50;101142.38;5069118;28;20041;-69
2021/08/04 00:39:56;;;;;;;9.77;4.43;;;;;;;11.55;95.66;101144.38;5070171;28;20352;-69
2021/08/04 00:42:22;;;;;;;7.07;3.87;;;;;;;11.55;95.78;101144.38;5068863;28;20045;-70
2021/08/04 00:44:48;;;;;;;6.60;3.10;;;;;;;11.48;95.98;101140.66;5069075;28;20028;-69
2021/08/04 00:47:14;;;;;;;5.45;3.50;;;;;;;11.47;95.86;101141.66;5068700;28;20032;-69
2021/08/04 00:49:41;;;;;;;6.03;4.03;;;;;;;11.44;95.61;101144.66;5069084;28;20101;-69
2021/08/04 00:52:07;;;;;;;5.78;4.03;;;;;;;11.44;95.78;101136.63;5068708;28;20032;-69
2021/08/04 00:54:34;;;;;;;9.27;4.45;;;;;;;11.44;95.65;101133.94;5068908;28;20028;-69
2021/08/04 00:56:59;;;;;;;5.72;3.60;;;;;;;11.43;95.70;101137.63;5051886;28;20037;-69
2021/08/04 00:59:24;;;;;;;7.20;3.53;;;;;;;11.44;95.69;101147.31;5069094;28;20385;-69
2021/08/04 01:01:56;;;;;;;11.70;3.57;;;;;;;11.37;95.62;101137.25;5068920;28;20036;-69
2021/08/04 01:04:30;;;;;;;5.25;3.05;;;;;;;11.38;95.91;101140.78;5068828;28;20036;-69
2021/08/04 01:07:07;;;;;;;5.28;3.03;;;;;;;11.35;95.90;101149.09;5068414;28;20428;-69
2021/08/04 01:09:48;;;;;;;8.70;3.75;;;;;;;11.31;95.92;101142.41;5069029;28;20036;-70
2021/08/04 01:12:21;;;;;;;4.78;3.28;;;;;;;11.30;95.85;101141.53;5069558;28;20067;-69
2021/08/04 01:14:49;;;;;;;5.15;3.05;;;;;;;11.31;95.99;101145.09;5069791;28;20098;-69
2021/08/04 01:17:17;;;;;;;5.57;3.40;;;;;;;11.32;96.17;101144.91;5068445;28;20039;-69
2021/08/04 01:20:10;;;;;;;7.88;4.03;;;;;;;11.43;96.09;101145.66;5068722;28;20039;-69
2021/08/04 01:23:00;;;;;;;6.95;3.60;;;;;;;11.52;96.97;101139.31;5069441;28;20070;-69
2021/08/04 01:25:32;;;;;;;5.65;3.60;;;;;;;11.62;97.34;101150.75;5069288;28;20055;-69
2021/08/04 01:28:19;;;;;;;3.80;3.20;;;;;;;11.68;97.25;101143.94;5067772;28;20040;-69
2021/08/04 01:30:48;;;;;;;8.73;4.10;;;;;;;11.75;97.76;101140.47;5068750;28;20511;-69
2021/08/04 01:33:14;;;;;;;5.90;3.47;;;;;;;11.79;97.79;101139.13;5068447;28;20409;-69
2021/08/04 01:35:41;;;;;;;4.88;3.33;;;;;;;11.81;97.55;101134.47;5068638;28;20678;-69
2021/08/04 01:38:07;;;;;;;;;;;;;;;11.80;97.76;101140.81;5068930;28;20050;-69
2021/08/04 01:40:33;;;;;;;;;;;;;;;11.80;97.70;101142.66;5070146;28;19913;-69
2021/08/04 01:43:00;;;;;;;5.72;3.67;;;;;;;11.78;97.48;101140.13;5069278;28;19923;-69
2021/08/04 01:45:26;;;;;;;5.70;3.85;;;;;;;11.90;98.15;101138.03;5071056;28;20060;-69
2021/08/04 01:47:52;;;;;;;6.05;3.83;;;;;;;11.88;97.87;101137.38;5072080;28;20068;-69
2021/08/04 01:50:17;;;;;;;7.55;3.47;;;;;;;11.87;97.61;101142.84;5073190;28;20044;-69
2021/08/04 01:52:43;;;;;;;5.93;3.67;;;;;;;11.75;97.15;101145.81;5072322;28;20048;-69
2021/08/04 01:55:10;;;;;;;5.23;3.63;;;;;;;11.73;97.13;101147.81;5072111;28;20028;-69
2021/08/04 01:57:38;;;;;;;4.82;3.08;;;;;;;11.74;97.24;101138.78;5071928;28;20036;-69
2021/08/04 02:00:04;;;;;;;5.50;3.30;;;;;;;11.65;97.07;101134.38;5072051;28;20040;-69
2021/08/04 02:02:39;;;;;;;4.85;3.47;;;;;;;11.69;97.33;101137.59;5073108;28;20043;-69
2021/08/04 02:05:06;;;;;;;7.55;3.95;;;;;;;11.68;97.09;101127.88;5071705;28;20179;-69
2021/08/04 02:07:59;;;;;;;10.85;4.22;;;;;;;11.68;97.10;101126.03;5071886;28;20043;-69
2021/08/04 02:10:49;;;;;;;5.30;3.00;;;;;;;11.67;96.98;101126.22;5062923;28;20045;-69
2021/08/04 02:13:36;;;;;;;9.02;3.70;;;;;;;11.68;97.39;101128.72;5052376;28;20079;-69
2021/08/04 02:16:30;;;;;;;6.30;3.38;;;;;;;11.74;97.28;101130.75;5071608;28;20062;-69
2021/08/04 02:19:06;;;;;;;4.32;3.30;;;;;;;11.74;97.23;101128.06;5070645;28;20052;-69
2021/08/04 02:21:34;;;;;;;4.88;3.45;;;;;;;11.78;97.59;101128.63;5071664;28;20051;-69
2021/08/04 02:24:01;;;;;;;7.70;4.05;;;;;;;11.79;97.35;101120.41;5071793;28;20454;-69
2021/08/04 02:26:30;;;;;;;5.32;3.65;;;;;;;11.81;97.11;101113.06;5072190;28;20051;-69
2021/08/04 02:28:57;;;;;;;6.63;4.32;;;;;;;11.81;97.21;101126.44;5071603;28;20571;-69
2021/08/04 02:31:22;;;;;;;;;;;;;;;11.80;96.88;101122.09;5072902;28;20021;-69
2021/08/04 02:33:48;;;;;;;;;;;;;;;11.81;97.27;101121.09;5071983;28;19927;-69
2021/08/04 02:36:13;;;;;;;5.30;3.75;;;;;;;11.80;96.95;101121.25;5071095;28;20375;-69
2021/08/04 02:38:39;;;;;;;6.18;3.65;;;;;;;11.78;97.13;101129.44;5071642;28;20631;-69
2021/08/04 02:41:05;;;;;;;5.38;3.25;;;;;;;11.77;97.18;101127.75;5072252;28;20028;-69
2021/08/04 02:43:31;;;;;;;6.97;3.78;;;;;;;11.77;96.97;101130.41;5070954;28;20036;-69
2021/08/04 02:45:58;;;;;;;;;;;;;;;11.75;97.13;101134.25;5071304;28;20025;-70
2021/08/04 02:48:24;;;;;;;5.00;3.22;;;;;;;11.72;97.02;101132.75;5071587;28;19916;-70
2021/08/04 02:50:58;;;;;;;;;;;;;;;11.69;96.96;101130.41;5071748;28;20036;-69
2021/08/04 02:53:24;;;;;;;8.63;4.53;;;;;;;11.68;97.02;101134.06;5072158;28;19916;-69
2021/08/04 02:55:51;;;;;;;4.93;3.38;;;;;;;11.66;97.00;101135.22;5069983;28;20039;-69
2021/08/04 02:58:17;;;;;;;5.25;3.95;;;;;;;11.61;96.58;101133.88;5072244;28;20050;-69
2021/08/04 03:00:42;;;;;;;4.70;3.60;;;;;;;11.53;96.42;101130.31;5072348;28;20025;-69
2021/08/04 03:03:08;;;;;;;3.97;2.88;;;;;;;11.52;96.66;101134.84;5054141;28;20368;-69
2021/08/04 03:05:33;;;;;;;6.50;4.53;;;;;;;11.54;96.97;101137.34;5071833;28;20343;-69
2021/08/04 03:07:59;;;;;;;5.07;4.13;;;;;;;11.52;96.77;101131.31;5070491;28;20036;-69
2021/08/04 03:10:24;;;;;;;7.00;3.30;;;;;;;11.50;96.50;101131.47;5070879;28;20028;-69
2021/08/04 03:12:50;;;;;;;7.43;3.83;;;;;;;11.49;96.57;101131.63;5071584;28;20044;-69
2021/08/04 03:15:16;;;;;;;5.15;3.50;;;;;;;11.46;97.13;101130.13;5070796;28;20036;-69
2021/08/04 03:17:41;;;;;;;4.45;3.10;;;;;;;11.49;97.29;101128.97;5070380;28;20028;-69
2021/08/04 03:20:08;;;;;;;4.40;3.03;;;;;;;11.40;96.79;101125.41;5070742;28;20398;-69
2021/08/04 03:22:34;;;;;;;4.47;3.35;;;;;;;11.38;96.87;101132.75;5071108;28;20082;-69
2021/08/04 03:24:59;;;;;;;5.33;2.93;;;;;;;11.35;96.97;101128.53;5070409;28;20036;-69
2021/08/04 03:27:24;;;;;;;5.07;3.67;;;;;;;11.34;97.11;101126.88;5069401;28;20047;-69
2021/08/04 03:29:50;;;;;;;4.97;3.63;;;;;;;11.32;97.23;101126.19;5071574;28;20024;-69
2021/08/04 03:32:16;;;;;;;4.13;2.90;;;;;;;11.29;97.11;101129.19;5070068;28;20082;-69
2021/08/04 03:34:41;;;;;;;6.93;3.03;;;;;;;11.23;96.96;101129.81;5071174;28;20024;-69
2021/08/04 03:37:07;;;;;;;6.53;3.27;;;;;;;11.22;97.02;101130.81;5070003;28;20040;-69
2021/08/04 03:39:33;;;;;;;7.45;3.83;;;;;;;11.17;96.67;101136.63;5069981;28;20032;-69
2021/08/04 03:41:58;;;;;;;4.63;3.00;;;;;;;11.16;96.85;101134.09;5070209;28;20032;-69
2021/08/04 03:44:23;;;;;;;7.00;3.30;;;;;;;11.13;96.78;101129.91;5069891;28;20043;-69
2021/08/04 03:46:49;;;;;;;5.57;3.90;;;;;;;11.11;97.03;101136.41;5069802;28;20039;-69
2021/08/04 03:49:16;;;;;;;7.43;5.10;;;;;;;11.11;96.95;101147.94;5070869;28;20519;-69
2021/08/04 03:51:42;;;;;;;6.72;4.53;;;;;;;11.13;97.15;101145.13;5053212;28;20036;-69
2021/08/04 03:54:07;;;;;;;6.07;4.10;;;;;;;11.16;97.29;101145.63;5070438;28;20033;-69
2021/08/04 03:56:32;;;;;;;9.00;5.30;;;;;;;11.17;96.88;101144.66;5070639;28;20027;-69
2021/08/04 03:58:58;;;;;;;10.47;3.87;;;;;;;11.10;96.64;101134.75;5070776;28;20043;-69
2021/08/04 04:01:23;;;;;;;4.77;3.77;;;;;;;11.08;96.62;101142.09;5069872;28;20080;-69
2021/08/04 04:03:48;;;;;;;6.07;3.73;;;;;;;11.06;96.70;101138.72;5069555;28;20075;-69
2021/08/04 04:06:14;;;;;;;4.23;3.00;;;;;;;11.04;96.74;101138.88;5069130;28;20082;-69
2021/08/04 04:08:39;;;;;;;6.10;3.20;;;;;;;11.05;96.83;101142.38;5070517;28;20047;-69
2021/08/04 04:11:05;;;;;;;3.80;3.23;;;;;;;11.13;96.93;101145.94;5053188;28;20028;-69
2021/08/04 04:13:32;;;;;;;;;;;;;;;11.13;96.56;101158.47;5070876;28;20036;-69
2021/08/04 04:15:57;;;;;;;5.95;3.00;;;;;;;11.15;96.71;101148.47;5068868;28;20353;-69
2021/08/04 04:18:22;;;;;;;6.63;3.17;;;;;;;11.17;96.55;101141.16;5070635;28;20040;-69
2021/08/04 04:20:48;;;;;;;6.57;2.67;;;;;;;11.18;96.18;101145.47;5070222;28;20028;-69
2021/08/04 04:23:13;;;;;;;8.20;3.97;;;;;;;11.23;96.25;101148.53;5070452;28;20446;-69
2021/08/04 04:25:38;;;;;;;8.30;3.80;;;;;;;11.29;96.31;101150.56;5069951;28;20157;-69
2021/08/04 04:28:04;;;;;;;10.70;6.13;;;;;;;11.37;96.35;101153.28;5069739;28;20075;-69
2021/08/04 04:30:29;;;;;;;5.67;3.90;;;;;;;11.43;96.34;101151.00;5070275;28;20032;-69
2021/08/04 04:32:54;;;;;;;13.20;4.87;;;;;;;11.47;96.03;101155.00;5052708;28;20024;-69
2021/08/04 04:35:20;;;;;;;5.63;4.23;;;;;;;11.55;95.98;101155.06;5068864;28;20032;-69
2021/08/04 04:37:45;;;;;;;5.43;3.63;;;;;;;11.61;96.00;101141.91;5070036;28;20040;-69
2021/08/04 04:40:11;;;;;;;7.63;3.03;;;;;;;11.70;96.03;101147.28;5069305;28;20058;-69
2021/08/04 04:42:36;;;;;;;4.13;2.97;;;;;;;11.81;95.85;101157.72;5068689;28;20033;-69
2021/08/04 04:45:02;;;;;;;3.73;2.50;;;;;;;11.91;96.10;101157.59;5070118;28;20064;-70
2021/08/04 04:47:27;;;;;;;3.78;2.03;;;;;;;12.05;96.03;101156.97;5068667;28;20033;-69
2021/08/04 04:49:53;;;;;;;18.23;11.07;;;;;;;12.16;96.00;101164.72;5070144;28;20115;-69
2021/08/04 04:52:18;;;;;;;17.20;9.97;;;;;;;12.29;96.15;101163.41;5068925;28;20039;-69
2021/08/04 04:54:43;;;;;;;13.40;5.37;;;;;;;12.41;96.11;101165.63;5070064;28;20579;-69
2021/08/04 04:57:09;;;;;;;8.40;3.80;;;;;;;12.55;96.15;101165.97;5068539;28;20365;-70
2021/08/04 04:59:34;;;;;;;7.60;3.20;;;;;;;12.72;96.31;101170.38;5067648;28;20094;-69
2021/08/04 05:02:00;;;;;;;6.93;3.33;;;;;;;12.88;96.49;101175.72;5067000;28;20525;-69
2021/08/04 05:04:25;;;;;;;17.43;6.53;;;;;;;13.00;96.63;101173.56;5068333;28;20048;-70
2021/08/04 05:06:50;;;;;;;8.00;3.83;;;;;;;13.25;96.87;101177.06;5066870;28;20139;-69
2021/08/04 05:09:16;;;;;;;5.47;3.57;;;;;;;13.46;96.68;101178.38;5068619;28;20048;-69
2021/08/04 05:11:41;;;;;;;4.23;3.20;;;;;;;13.61;95.87;101178.53;5068372;28;20039;-69
2021/08/04 05:14:06;;;;;;;6.70;3.57;;;;;;;13.76;94.52;101176.78;5069206;28;20075;-70
2021/08/04 05:16:32;;;;;;;4.90;3.00;;;;;;;14.07;95.62;101186.72;5068388;28;20067;-69
2021/08/04 05:18:57;;;;;;;4.03;2.90;;;;;;;14.31;95.62;101173.19;5072791;28;20036;-70
2021/08/04 05:21:22;;;;;;;6.30;3.13;;;;;;;14.76;93.84;101179.63;5072905;28;20454;-70
2021/08/04 05:23:48;;;;;;;4.73;3.10;;;;;;;15.32;91.27;101190.09;5072623;28;20029;-70
2021/08/04 05:26:13;;;;;;;5.47;2.87;;;;;;;16.07;86.27;101192.84;5073346;28;20090;-70
2021/08/04 05:28:39;;;;;;;3.95;2.70;;;;;;;16.83;82.27;101196.84;5072955;28;20044;-70
2021/08/04 05:31:04;;;;;;;3.30;2.17;;;;;;;17.73;76.93;101187.16;5072874;28;20213;-70
2021/08/04 05:33:29;;;;;;;2.70;1.80;;;;;;;18.27;75.56;101187.44;5072205;28;20045;-70
2021/08/04 05:35:55;;;;;;;3.37;2.03;;;;;;;19.02;71.99;101190.94;5072417;28;20045;-70
2021/08/04 05:38:20;;;;;;;5.40;2.33;;;;;;;19.26;69.67;101194.88;5071874;28;20441;-70
2021/08/04 05:40:46;;;;;;;4.97;3.30;;;;;;;19.46;69.35;101192.19;5071382;28;20047;-70
2021/08/04 05:43:11;;;;;;;5.80;2.00;;;;;;;19.94;68.42;101191.03;5071002;28;20047;-70
2021/08/04 05:45:37;;;;;;;1.97;1.50;;;;;;;20.03;66.68;101187.88;5072005;28;20342;-70
2021/08/04 05:48:06;;;;;;;1.80;1.48;;;;;;;20.20;64.70;101187.38;5070613;28;20588;-70
2021/08/04 05:50:32;;;;;;;2.72;2.00;;;;;;;19.71;66.90;101195.06;5072056;28;20478;-70
2021/08/04 05:52:57;;;;;;;3.67;1.40;;;;;;;20.69;65.44;101201.34;5071173;28;20020;-70
2021/08/04 05:55:23;;;;;;;2.13;1.50;;;;;;;21.07;63.25;101188.56;5072027;28;20040;-70
2021/08/04 05:57:48;;;;;;;1.90;1.13;;;;;;;21.07;62.80;101194.00;5072767;28;20084;-68
2021/08/04 06:00:14;;;;;;;3.23;1.73;;;;;;;21.50;61.69;101193.19;5073042;28;20127;-68
2021/08/04 06:02:39;;;;;;;4.75;1.83;;;;;;;21.32;61.06;101184.16;5072771;28;20056;-68
2021/08/04 06:05:05;;;;;;;2.50;1.80;;;;;;;21.82;60.04;101190.38;5072803;28;20430;-69
2021/08/04 06:07:31;;;;;;;4.55;1.90;;;;;;;22.15;59.58;101186.44;5071869;28;20451;-70
2021/08/04 06:09:56;;;;;;;5.40;1.60;;;;;;;22.03;60.09;101193.66;5072928;28;20373;-68
2021/08/04 06:12:21;;;;;;;2.07;1.70;;;;;;;21.80;60.31;101191.66;5055338;28;20048;-68
2021/08/04 06:14:47;;;;;;;3.17;1.95;;;;;;;22.82;56.91;101194.50;5072642;28;20047;-69
2021/08/04 06:17:12;;;;;;;3.77;1.70;;;;;;;22.02;59.64;101200.19;5072525;28;20024;-69
2021/08/04 06:19:38;;;;;;;2.70;1.50;;;;;;;21.58;61.45;101199.41;5072535;28;20385;-69
2021/08/04 06:22:03;;;;;;;3.53;1.48;;;;;;;22.52;58.72;101197.25;5071827;28;20036;-69
2021/08/04 06:24:29;;;;;;;4.47;1.65;;;;;;;21.92;60.10;101196.09;5071463;28;20440;-69
2021/08/04 06:26:54;;;;;;;4.47;1.83;;;;;;;22.16;59.85;101203.56;5054611;28;20032;-69
2021/08/04 06:29:21;;;;;;;6.80;1.83;;;;;;;22.18;59.72;101201.44;5070767;28;20025;-69
2021/08/04 06:31:47;;;;;;;1.42;1.30;;;;;;;22.67;59.16;101203.09;5072353;28;20044;-69
2021/08/04 06:34:12;;;;;;;1.73;1.23;;;;;;;22.80;58.89;101202.06;5072451;28;20115;-69
2021/08/04 06:36:37;;;;;;;2.40;1.47;;;;;;;23.22;56.85;101201.22;5054539;28;20060;-69
2021/08/04 06:39:03;;;;;;;5.60;1.63;;;;;;;22.46;57.67;101199.00;5071651;28;20056;-69
2021/08/04 06:41:28;;;;;;;1.53;1.37;;;;;;;22.53;58.86;101196.19;5070761;28;20033;-69
2021/08/04 06:43:55;;;;;;;4.90;1.50;;;;;;;23.14;57.88;101203.22;5054951;28;20032;-69
2021/08/04 06:46:20;;;;;;;2.20;1.70;;;;;;;23.28;56.28;101195.66;5071690;28;20048;-69
2021/08/04 06:48:45;;;;;;;3.17;1.47;;;;;;;23.55;57.12;101198.75;5071371;28;20036;-69
2021/08/04 06:51:11;;;;;;;4.30;1.50;;;;;;;24.13;56.41;101193.47;5071167;28;20659;-69
2021/08/04 06:53:37;;;;;;;3.22;1.38;;;;;;;23.53;55.41;101192.72;5071988;28;20097;-69
2021/08/04 06:56:03;;;;;;;4.97;1.23;;;;;;;22.47;58.12;101186.22;5070592;28;20032;-69
2021/08/04 06:58:28;;;;;;;5.03;1.42;;;;;;;21.43;59.40;101181.56;5072151;28;20048;-69
2021/08/04 07:00:53;;;;;;;3.47;1.33;;;;;;;20.68;63.36;101189.69;5071936;28;20048;-69
2021/08/04 07:03:19;;;;;;;6.80;1.60;;;;;;;20.59;63.91;101201.84;5070864;28;20048;-69
2021/08/04 07:05:46;;;;;;;5.57;1.38;;;;;;;20.60;64.75;101196.19;5071711;28;20042;-71
2021/08/04 07:08:12;;;;;;;3.72;1.50;;;;;;;21.00;62.40;101205.94;5071668;28;20033;-71
2021/08/04 07:10:37;;;;;;;2.88;1.60;;;;;;;21.19;63.30;101198.66;5054370;28;20397;-71
2021/08/04 07:13:02;;;;;;;2.83;1.53;;;;;;;22.26;59.66;101215.56;5070716;28;20127;-69
2021/08/04 07:15:28;;;;;;;8.20;1.87;;;;;;;21.83;59.28;101202.88;5070725;28;20039;-69
2021/08/04 07:17:53;;;;;;;1.93;1.40;;;;;;;20.99;61.91;101198.84;5071245;28;20151;-71
2021/08/04 07:20:21;;;;;;;3.37;1.13;;;;;;;21.07;62.99;101199.41;5070698;28;20036;-70
2021/08/04 07:22:48;;;;;;;2.75;1.50;;;;;;;21.47;61.35;101204.53;5053569;28;20460;-69
2021/08/04 07:25:15;;;;;;;2.42;1.40;;;;;;;22.32;57.68;101208.41;5070411;28;20037;-70
2021/08/04 07:27:41;;;;;;;3.00;1.08;;;;;;;22.43;57.87;101207.63;5052427;28;20051;-69
2021/08/04 07:30:09;;;;;;;3.42;1.98;;;;;;;22.10;58.88;101202.56;5071588;28;20025;-70
2021/08/04 07:32:36;;;;;;;2.08;1.45;;;;;;;21.49;60.39;101207.00;5070087;28;20552;-69
2021/08/04 07:35:01;;;;;;;5.80;1.55;;;;;;;22.15;59.25;101210.91;5071274;28;20032;-69
2021/08/04 07:37:28;;;;;;;2.40;1.40;;;;;;;21.32;61.75;101214.84;5070030;28;20326;-69
2021/08/04 07:39:54;;;;;;;2.63;1.52;;;;;;;22.11;58.19;101210.50;5070258;28;20183;-70
2021/08/04 07:42:20;;;;;;;4.30;1.55;;;;;;;22.22;59.16;101225.28;5070544;28;20044;-69
2021/08/04 07:44:45;;;;;;;4.90;1.40;;;;;;;21.78;57.98;101207.34;5070961;28;20040;-69
2021/08/04 07:47:11;;;;;;;2.13;1.60;;;;;;;21.87;58.39;101211.44;5053238;28;20033;-70
2021/08/04 07:49:36;;;;;;;1.80;1.20;;;;;;;22.21;57.81;101220.88;5069859;28;20047;-69
2021/08/04 07:52:02;;;;;;;2.00;1.40;;;;;;;22.02;57.90;101217.31;5053380;28;20373;-69
2021/08/04 07:54:27;;;;;;;4.53;1.20;;;;;;;21.48;58.50;101210.78;5069683;28;20123;-69
2021/08/04 07:56:53;;;;;;;1.23;1.00;;;;;;;21.70;58.75;101216.63;5070719;28;20068;-69
2021/08/04 07:59:18;;;;;;;2.30;1.30;;;;;;;21.42;59.83;101212.53;5069865;28;20040;-69
2021/08/04 08:01:44;;;;;;;5.03;1.83;;;;;;;21.39;60.45;101220.22;5069894;28;20055;-70
2021/08/04 08:04:09;;;;;;;;;;;;;;;21.64;59.89;101218.34;5070803;28;20033;-70
2021/08/04 08:06:35;;;;;;;;;;;;;;;21.75;57.95;101222.22;5070103;28;20295;-69
2021/08/04 08:09:00;;;;;;;2.40;1.50;;;;;;;21.52;59.15;101222.00;5070808;28;19989;-69
2021/08/04 08:11:26;;;;;;;3.67;1.77;;;;;;;21.44;59.36;101218.53;5070756;28;20040;-69
2021/08/04 08:13:51;;;;;;;3.60;1.30;;;;;;;21.46;59.18;101208.28;5070421;28;20108;-70
2021/08/04 08:16:17;;;;;;;2.93;1.43;;;;;;;21.92;56.78;101215.13;5070223;28;20033;-70
2021/08/04 08:18:42;;;;;;;2.38;1.10;;;;;;;22.33;56.40;101213.59;5069922;28;20037;-69
2021/08/04 08:21:08;;;;;;;1.30;1.10;;;;;;;22.02;56.08;101206.44;5052646;28;20040;-70
2021/08/04 08:23:33;;;;;;;2.87;1.30;;;;;;;22.01;57.39;101199.34;5069470;28;20041;-69
2021/08/04 08:25:58;;;;;;;2.83;1.47;;;;;;;22.50;54.83;101202.06;5052196;28;20033;-70
2021/08/04 08:28:24;;;;;;;2.67;1.00;;;;;;;22.80;54.09;101204.78;5069108;28;20496;-70
2021/08/04 08:30:49;;;;;;;3.37;1.17;;;;;;;22.41;54.70;101208.94;5070119;28;20414;-70
2021/08/04 08:33:14;;;;;;;3.63;1.37;;;;;;;21.88;58.15;101208.47;5069460;28;20079;-69
2021/08/04 08:35:40;;;;;;;2.53;1.30;;;;;;;21.78;57.59;101202.75;5069928;28;20071;-70
2021/08/04 08:38:05;;;;;;;5.27;1.80;;;;;;;21.71;56.60;101197.38;5069052;28;20045;-70
2021/08/04 08:40:30;;;;;;;6.47;1.30;;;;;;;21.52;58.13;101205.72;5069179;28;20040;-70
2021/08/04 08:42:56;;;;;;;3.25;1.17;;;;;;;21.26;58.60;101207.63;5069279;28;20032;-69
2021/08/04 08:45:22;;;;;;;3.50;1.13;;;;;;;21.18;58.84;101205.16;5069661;28;20059;-69
2021/08/04 08:47:47;;;;;;;4.57;1.50;;;;;;;21.33;58.95;101200.25;5068968;28;20067;-69
2021/08/04 08:50:15;;;;;;;2.57;1.30;;;;;;;21.19;58.37;101206.81;5070037;28;20047;-69
2021/08/04 08:52:40;;;;;;;2.35;1.08;;;;;;;20.95;57.97;101206.59;5069026;28;20041;-70
2021/08/04 08:55:07;;;;;;;2.17;1.15;;;;;;;20.73;57.13;101203.41;5052423;28;20039;-69
2021/08/04 08:57:33;;;;;;;3.55;1.77;;;;;;;21.31;58.36;101198.81;5069656;28;20037;-69
2021/08/04 08:59:59;;;;;;;6.82;1.38;;;;;;;21.62;55.86;101206.06;5070094;28;20029;-69
2021/08/04 09:02:25;;;;;;;1.85;1.13;;;;;;;21.67;55.42;101196.16;5069601;28;20044;-69
2021/08/04 09:04:58;;;;;;;;;;;;;;;20.73;59.63;101206.13;5052671;28;20036;-69
2021/08/04 09:07:37;;;;;;;1.42;1.30;;;;;;;21.67;57.92;101203.47;5068562;28;19917;-69
2021/08/04 09:10:19;;;;;;;4.05;1.77;;;;;;;21.03;56.86;101194.66;5070100;28;20036;-69
2021/08/04 09:12:54;;;;;;;2.80;1.20;;;;;;;20.90;58.79;101192.84;5069743;28;20063;-72
2021/08/04 09:15:23;;;;;;;3.33;1.42;;;;;;;21.69;57.23;101198.66;5068769;28;20072;-72
2021/08/04 09:18:02;;;;;;;1.02;0.93;;;;;;;21.52;57.13;101197.56;5067878;28;20468;-69
2021/08/04 09:20:30;;;;;;;3.13;1.88;;;;;;;20.95;55.18;101195.72;5067374;28;20037;-69
2021/08/04 09:23:02;;;;;;;2.70;1.50;;;;;;;20.64;56.40;101194.69;5067702;28;20045;-69
2021/08/04 09:25:28;;;;;;;2.75;1.38;;;;;;;20.59;57.67;101196.41;5068352;28;20120;-69
2021/08/04 09:27:56;;;;;;;;;;;;;;;21.59;57.19;101201.91;5051383;28;20762;-69
2021/08/04 09:30:29;;;;;;;4.05;1.00;;;;;;;21.69;56.01;101201.38;5068799;28;19919;-69
2021/08/04 09:33:12;;;;;;;2.40;1.13;;;;;;;21.99;56.73;101201.47;5069403;28;20529;-69
2021/08/04 09:35:55;;;;;;;3.65;1.50;;;;;;;22.04;55.06;101196.16;5068768;28;20036;-69
2021/08/04 09:38:21;;;;;;;1.95;1.30;;;;;;;21.99;55.43;101195.19;5069626;28;20079;-69
2021/08/04 09:41:07;;;;;;;1.65;1.20;;;;;;;22.04;54.16;101200.78;5069850;28;20063;-69
2021/08/04 09:43:32;;;;;;;1.35;1.25;;;;;;;21.78;54.26;101199.19;5068582;28;20389;-69
2021/08/04 09:45:58;;;;;;;1.67;1.13;;;;;;;22.30;54.20;101197.75;5068206;28;20025;-70
2021/08/04 09:48:26;;;;;;;2.17;1.20;;;;;;;21.93;55.00;101196.91;5069536;28;20033;-70
2021/08/04 09:51:00;;;;;;;4.35;1.25;;;;;;;22.86;53.16;101189.44;5068789;28;20294;-70
2021/08/04 09:53:30;;;;;;;2.15;1.10;;;;;;;23.73;50.75;101194.22;5069207;28;20473;-70
2021/08/04 09:56:04;;;;;;;3.15;1.13;;;;;;;24.28;48.43;101192.94;5069255;28;20037;-71
2021/08/04 09:58:30;;;;;;;1.02;0.90;;;;;;;25.68;45.29;101184.94;5051702;28;20051;-70
2021/08/04 10:00:55;;;;;;;1.47;0.93;;;;;;;25.47;45.14;101189.28;5068762;28;20028;-70
2021/08/04 10:03:20;;;;;;;1.63;1.00;;;;;;;24.98;45.54;101178.97;5069799;28;20290;-70
2021/08/04 10:05:46;;;;;;;3.63;1.00;;;;;;;24.23;49.25;101191.78;5071638;28;20579;-70
2021/08/04 10:08:12;;;;;;;1.53;1.20;;;;;;;23.78;48.88;101186.19;5073217;28;20365;-70
2021/08/04 10:10:50;;;;;;;1.38;0.98;;;;;;;23.26;48.66;101181.47;5072233;28;20369;-70
2021/08/04 10:13:19;;;;;;;2.53;0.82;;;;;;;22.47;52.18;101187.06;5055218;28;20361;-70
2021/08/04 10:15:50;;;;;;;2.35;1.00;;;;;;;22.73;52.39;101185.84;5071608;28;20024;-70
2021/08/04 10:18:19;;;;;;;2.47;1.08;;;;;;;22.43;54.04;101191.31;5055547;28;20145;-70
2021/08/04 10:20:47;;;;;;;1.48;0.98;;;;;;;22.20;53.96;101186.56;5071854;28;20067;-70
2021/08/04 10:23:17;;;;;;;1.52;1.00;;;;;;;21.02;54.92;101191.06;5072921;28;20064;-70
2021/08/04 10:25:43;;;;;;;3.15;1.38;;;;;;;21.12;58.05;101197.91;5072280;28;20454;-70
2021/08/04 10:28:09;;;;;;;3.72;1.30;;;;;;;21.30;57.97;101192.53;5071686;28;20032;-70
2021/08/04 10:30:36;;;;;;;1.80;1.13;;;;;;;21.30;58.41;101200.66;5072808;28;20123;-70
2021/08/04 10:33:04;;;;;;;3.35;1.23;;;;;;;21.04;58.43;101201.72;5071872;28;20098;-70
2021/08/04 10:35:30;;;;;;;2.42;1.08;;;;;;;20.78;59.67;101200.88;5071405;28;20393;-70
2021/08/04 10:37:56;;;;;;;4.63;1.33;;;;;;;20.60;60.82;101201.63;5071729;28;20058;-69
2021/08/04 10:40:26;;;;;;;3.22;1.00;;;;;;;20.43;60.96;101209.38;5071721;28;20450;-69
2021/08/04 10:42:52;;;;;;;3.28;1.55;;;;;;;20.15;62.29;101206.19;5072618;28;20037;-69
2021/08/04 10:45:23;;;;;;;1.95;0.90;;;;;;;19.97;63.24;101210.44;5071208;28;20443;-69
2021/08/04 10:47:50;;;;;;;2.05;1.13;;;;;;;19.69;63.60;101197.16;5069676;28;20041;-70
2021/08/04 10:50:15;;;;;;;2.65;1.30;;;;;;;19.22;65.29;101203.63;5069830;28;20029;-69
2021/08/04 10:52:56;;;;;;;2.53;1.27;;;;;;;18.93;65.45;101209.25;5069796;28;20051;-69
2021/08/04 10:55:22;;;;;;;4.25;1.48;;;;;;;18.91;66.90;101208.59;5069627;28;20036;-69
2021/08/04 10:58:06;;;;;;;3.80;1.50;;;;;;;18.97;66.57;101215.91;5069446;28;20028;-69
2021/08/04 11:00:33;;;;;;;3.83;1.23;;;;;;;18.61;66.68;101215.38;5069702;28;20285;-68
2021/08/04 11:02:59;;;;;;;3.40;1.50;;;;;;;18.55;67.74;101212.47;5071116;28;20028;-69
2021/08/04 11:05:25;;;;;;;3.57;1.30;;;;;;;18.33;69.89;101219.03;5054278;28;20044;-69
2021/08/04 11:08:10;;;;;;;;;;;;;;;18.41;69.25;101216.16;5072196;28;20036;-69
2021/08/04 11:10:38;;;;;;;2.92;1.73;;;;;;;18.38;70.20;101213.88;5054550;28;19912;-69
2021/08/04 11:13:03;;;;;;;3.63;1.50;;;;;;;18.33;69.46;101205.53;5071657;28;20029;-69
2021/08/04 11:15:30;;;;;;;2.80;1.23;;;;;;;18.31;69.45;101216.56;5071237;28;20509;-69
2021/08/04 11:18:02;;;;;;;1.67;1.13;;;;;;;18.13;69.64;101213.56;5070365;28;20032;-69
2021/08/04 11:20:28;;;;;;;2.13;1.40;;;;;;;18.05;70.70;101228.09;5070819;28;20070;-69
2021/08/04 11:22:53;;;;;;;3.38;1.13;;;;;;;18.11;71.34;101216.47;5069920;28;20070;-69
2021/08/04 11:25:28;;;;;;;2.77;1.47;;;;;;;18.03;71.57;101224.75;5069675;28;20111;-69
2021/08/04 11:27:53;;;;;;;3.28;1.27;;;;;;;18.16;71.56;101217.72;5052726;28;20036;-69